createdAt,value
2022-08-20T00:01:38.814Z,11.48
2022-08-20T00:04:05.788Z,10.27
2022-08-20T00:06:34.282Z,10.55
2022-08-20T00:09:01.017Z,11.38
2022-08-20T00:11:29.057Z,10.98
2022-08-20T00:13:58.513Z,11.05
2022-08-20T00:16:28.129Z,10.23
2022-08-20T00:18:55.597Z,10.95
2022-08-20T00:21:24.952Z,11.35
2022-08-20T00:23:55.194Z,10.27
2022-08-20T00:26:22.741Z,10.75
2022-08-20T00:28:49.532Z,10.98
2022-08-20T00:31:25.114Z,10.45
2022-08-20T00:33:52.383Z,11.32
2022-08-20T00:36:20.147Z,10.23
2022-08-20T00:38:47.620Z,10.30
2022-08-20T00:41:20.464Z,10.95
2022-08-20T00:46:33.223Z,10.55
2022-08-20T00:49:02.254Z,10.68
2022-08-20T00:51:41.740Z,11.10
2022-08-20T00:54:21.569Z,9.55
2022-08-20T00:56:52.716Z,11.45
2022-08-20T00:59:25.537Z,10.68
2022-08-20T01:01:55.484Z,10.48
2022-08-20T01:04:25.137Z,10.32
2022-08-20T01:06:52.382Z,10.38
2022-08-20T01:09:49.891Z,10.52
2022-08-20T01:12:08.060Z,10.63
2022-08-20T01:14:35.945Z,9.82
2022-08-20T01:17:06.932Z,10.70
2022-08-20T01:19:38.128Z,10.88
2022-08-20T01:22:26.145Z,10.52
2022-08-20T01:24:57.632Z,11.20
2022-08-20T01:27:24.854Z,11.45
2022-08-20T01:29:52.008Z,11.48
2022-08-20T01:32:18.932Z,11.32
2022-08-20T01:34:45.898Z,11.45
2022-08-20T01:37:13.695Z,10.98
2022-08-20T01:39:41.141Z,11.23
2022-08-20T01:42:19.607Z,11.50
2022-08-20T01:44:47.715Z,11.38
2022-08-20T01:47:21.076Z,12.02
2022-08-20T01:49:54.901Z,12.80
2022-08-20T01:52:33.668Z,13.38
2022-08-20T01:55:02.448Z,12.18
2022-08-20T01:57:29.558Z,13.10
2022-08-20T01:59:56.592Z,12.35
2022-08-20T02:02:24.440Z,13.70
2022-08-20T02:04:51.286Z,12.00
2022-08-20T02:07:21.482Z,13.20
2022-08-20T02:09:49.288Z,13.63
2022-08-20T02:12:17.494Z,13.75
2022-08-20T02:14:53.857Z,12.88
2022-08-20T02:17:22.932Z,14.68
2022-08-20T02:19:58.425Z,13.15
2022-08-20T02:22:49.276Z,13.95
2022-08-20T02:25:17.845Z,14.27
2022-08-20T02:27:49.031Z,13.55
2022-08-20T02:30:27.531Z,14.52
2022-08-20T02:32:56.341Z,14.13
2022-08-20T02:35:24.284Z,14.50
2022-08-20T02:37:52.241Z,15.15
2022-08-20T02:40:27.345Z,15.63
2022-08-20T02:43:00.538Z,15.70
2022-08-20T02:45:28.727Z,16.40
2022-08-20T02:47:59.044Z,17.77
2022-08-20T02:50:27.022Z,18.27
2022-08-20T02:52:56.335Z,19.40
2022-08-20T02:55:27.832Z,19.55
2022-08-20T02:58:00.820Z,20.77
2022-08-20T03:00:38.183Z,19.88
2022-08-20T03:03:11.068Z,15.18
2022-08-20T03:05:40.828Z,15.25
2022-08-20T03:08:09.294Z,14.45
2022-08-20T03:10:37.913Z,14.18
2022-08-20T03:13:11.300Z,12.98
2022-08-20T03:15:40.752Z,12.35
2022-08-20T03:18:07.617Z,11.63
2022-08-20T03:20:34.824Z,9.43
2022-08-20T03:23:01.826Z,7.78
2022-08-20T03:25:29.175Z,4.38
2022-08-20T03:27:57.991Z,4.30
2022-08-20T03:30:27.641Z,3.85
2022-08-20T03:32:55.067Z,3.42
2022-08-20T03:35:23.725Z,3.72
2022-08-20T03:37:50.897Z,3.70
2022-08-20T03:40:32.011Z,3.47
2022-08-20T03:42:59.247Z,3.05
2022-08-20T03:45:27.160Z,3.05
2022-08-20T03:47:58.918Z,3.53
2022-08-20T03:50:28.686Z,3.17
2022-08-20T03:52:56.051Z,3.13
2022-08-20T03:55:24.488Z,2.60
2022-08-20T03:57:57.387Z,2.63
2022-08-20T04:00:34.595Z,2.70
2022-08-20T04:03:01.415Z,2.45
2022-08-20T04:05:30.494Z,2.85
2022-08-20T04:08:00.205Z,2.40
2022-08-20T04:10:30.981Z,2.83
2022-08-20T04:12:57.841Z,3.10
2022-08-20T04:15:25.964Z,3.20
2022-08-20T04:17:54.213Z,4.20
2022-08-20T04:20:23.894Z,4.70
2022-08-20T04:22:58.622Z,3.05
2022-08-20T04:25:31.473Z,3.42
2022-08-20T04:28:05.914Z,3.60
2022-08-20T04:30:33.368Z,2.75
2022-08-20T04:33:01.891Z,3.00
2022-08-20T04:35:29.794Z,3.03
2022-08-20T04:38:17.706Z,3.17
2022-08-20T04:40:53.951Z,3.13
2022-08-20T04:43:23.243Z,3.05
2022-08-20T04:45:51.993Z,3.08
2022-08-20T04:48:20.278Z,3.30
2022-08-20T04:50:47.291Z,3.40
2022-08-20T04:53:23.911Z,3.53
2022-08-20T04:55:54.423Z,3.15
2022-08-20T04:58:30.304Z,3.47
2022-08-20T05:01:01.241Z,3.42
2022-08-20T05:03:30.567Z,3.25
2022-08-20T05:05:57.595Z,3.60
2022-08-20T05:08:25.799Z,4.00
2022-08-20T05:11:01.214Z,3.63
2022-08-20T05:13:43.012Z,4.22
2022-08-20T05:16:09.930Z,4.10
2022-08-20T05:18:37.287Z,5.50
2022-08-20T05:21:07.661Z,7.25
2022-08-20T05:23:39.984Z,8.10
2022-08-20T05:26:09.222Z,9.07
2022-08-20T05:28:51.369Z,6.10
2022-08-20T05:31:32.066Z,3.92
2022-08-20T05:34:04.101Z,5.25
2022-08-20T05:36:30.968Z,4.57
2022-08-20T05:38:57.999Z,4.00
2022-08-20T05:41:27.654Z,7.63
2022-08-20T05:44:00.110Z,4.95
2022-08-20T05:46:27.295Z,4.15
2022-08-20T05:48:54.085Z,4.85
2022-08-20T05:51:20.975Z,4.63
2022-08-20T05:53:49.962Z,5.03
2022-08-20T05:56:16.780Z,4.68
2022-08-20T05:58:43.660Z,5.43
2022-08-20T06:01:10.436Z,5.20
2022-08-20T06:03:56.133Z,5.45
2022-08-20T06:06:44.708Z,6.28
2022-08-20T06:09:10.151Z,5.82
2022-08-20T06:11:39.969Z,7.40
2022-08-20T06:14:09.775Z,7.28
2022-08-20T06:16:37.299Z,7.80
2022-08-20T06:19:05.280Z,8.52
2022-08-20T06:21:32.276Z,8.77
2022-08-20T06:24:00.561Z,9.65
2022-08-20T06:26:29.920Z,11.20
2022-08-20T06:28:58.574Z,13.95
2022-08-20T06:31:25.990Z,14.82
2022-08-20T06:33:52.755Z,14.05
2022-08-20T06:36:19.902Z,12.95
2022-08-20T06:38:47.024Z,14.43
2022-08-20T06:41:14.162Z,14.73
2022-08-20T06:43:41.151Z,14.90
2022-08-20T06:46:10.021Z,15.18
2022-08-20T06:48:37.105Z,15.38
2022-08-20T06:51:06.477Z,13.70
2022-08-20T06:53:33.539Z,13.80
2022-08-20T06:56:00.962Z,13.15
2022-08-20T06:58:37.643Z,13.13
2022-08-20T07:01:09.880Z,12.40
2022-08-20T07:03:55.012Z,11.48
2022-08-20T07:06:25.894Z,13.02
2022-08-20T07:08:53.665Z,12.70
2022-08-20T07:11:27.019Z,13.75
2022-08-20T07:13:57.124Z,13.73
2022-08-20T07:16:24.476Z,14.02
2022-08-20T07:18:51.726Z,13.82
2022-08-20T07:21:18.563Z,12.95
2022-08-20T07:23:49.869Z,13.50
2022-08-20T07:26:18.085Z,14.10
2022-08-20T07:28:45.241Z,15.15
2022-08-20T07:31:31.243Z,16.23
2022-08-20T07:33:58.373Z,16.95
2022-08-20T07:36:27.084Z,16.30
2022-08-20T07:38:54.697Z,17.65
2022-08-20T07:41:23.743Z,18.58
2022-08-20T07:43:51.628Z,16.67
2022-08-20T07:46:20.741Z,14.82
2022-08-20T07:48:51.338Z,15.95
2022-08-20T07:51:20.912Z,17.25
2022-08-20T07:53:48.484Z,20.63
2022-08-20T07:56:20.623Z,21.58
2022-08-20T07:58:51.227Z,19.50
2022-08-20T08:01:21.278Z,19.42
2022-08-20T08:03:51.348Z,20.67
2022-08-20T08:06:29.632Z,20.15
2022-08-20T08:09:02.476Z,19.30
2022-08-20T08:11:30.882Z,20.02
2022-08-20T08:14:00.718Z,21.13
2022-08-20T08:16:28.370Z,22.10
2022-08-20T08:18:56.679Z,23.23
2022-08-20T08:21:23.894Z,23.38
2022-08-20T08:23:58.119Z,20.38
2022-08-20T08:26:26.272Z,19.50
2022-08-20T08:28:53.108Z,18.67
2022-08-20T08:31:21.141Z,17.30
2022-08-20T08:33:49.017Z,14.75
2022-08-20T08:36:16.796Z,10.75
2022-08-20T08:38:44.907Z,13.85
2022-08-20T08:41:18.241Z,11.13
2022-08-20T08:43:47.103Z,8.07
2022-08-20T08:46:33.179Z,7.22
2022-08-20T08:49:02.644Z,9.20
2022-08-20T08:51:39.809Z,13.63
2022-08-20T08:54:07.991Z,13.52
2022-08-20T08:56:35.752Z,11.05
2022-08-20T08:59:06.081Z,11.70
2022-08-20T09:01:55.096Z,13.70
2022-08-20T09:04:26.526Z,12.85
2022-08-20T09:06:54.461Z,12.13
2022-08-20T09:09:35.548Z,10.57
2022-08-20T09:12:11.901Z,10.88
2022-08-20T09:14:39.626Z,11.07
2022-08-20T09:17:07.196Z,11.20
2022-08-20T09:19:34.127Z,10.77
2022-08-20T09:22:10.675Z,10.57
2022-08-20T09:24:38.523Z,10.57
2022-08-20T09:27:05.722Z,8.20
2022-08-20T09:29:33.087Z,7.78
2022-08-20T09:32:17.877Z,8.30
2022-08-20T09:34:47.349Z,7.38
2022-08-20T09:37:17.690Z,8.07
2022-08-20T09:39:44.574Z,6.28
2022-08-20T09:42:20.679Z,4.55
2022-08-20T09:44:48.142Z,5.28
2022-08-20T09:47:15.701Z,6.55
2022-08-20T09:49:42.716Z,7.03
2022-08-20T09:52:17.411Z,6.72
2022-08-20T09:54:44.540Z,6.93
2022-08-20T09:57:17.737Z,6.65
2022-08-20T09:59:48.263Z,5.85
2022-08-20T10:02:15.098Z,6.13
2022-08-20T10:04:41.933Z,6.65
2022-08-20T10:07:09.106Z,7.10
2022-08-20T10:09:38.772Z,8.13
2022-08-20T10:12:07.137Z,7.85
2022-08-20T10:14:33.879Z,9.75
2022-08-20T10:17:02.425Z,8.95
2022-08-20T10:19:31.671Z,10.30
2022-08-20T10:21:59.723Z,10.13
2022-08-20T10:35:47.113Z,11.48
2022-08-20T10:38:14.102Z,12.90
2022-08-20T10:40:41.523Z,12.20
2022-08-20T10:43:17.865Z,10.70
2022-08-20T10:45:44.753Z,10.57
2022-08-20T10:48:11.677Z,8.65
2022-08-20T10:50:38.545Z,7.72
2022-08-20T10:53:05.535Z,7.88
2022-08-20T10:55:32.379Z,7.38
2022-08-20T10:57:59.359Z,7.78
2022-08-20T11:00:26.529Z,7.18
2022-08-20T11:02:53.958Z,6.38
2022-08-20T11:05:21.135Z,7.20
2022-08-20T11:07:54.736Z,7.78
2022-08-20T11:10:29.826Z,8.15
2022-08-20T11:12:56.825Z,7.30
2022-08-20T11:15:24.219Z,8.68
2022-08-20T11:17:51.235Z,7.57
2022-08-20T11:20:22.126Z,8.45
2022-08-20T11:22:49.238Z,8.70
2022-08-20T11:25:16.742Z,8.98
2022-08-20T11:27:46.546Z,8.18
2022-08-20T11:30:28.935Z,8.30
2022-08-20T11:33:02.523Z,7.35
2022-08-20T11:35:49.946Z,7.22
2022-08-20T11:38:30.941Z,7.90
2022-08-20T11:41:03.969Z,7.20
2022-08-20T11:43:37.153Z,7.70
2022-08-20T11:46:36.589Z,7.43
2022-08-20T11:49:24.139Z,8.45
2022-08-20T11:51:54.553Z,8.88
2022-08-20T11:54:29.700Z,8.60
2022-08-20T11:56:58.024Z,9.15
2022-08-20T11:59:30.942Z,9.23
2022-08-20T12:02:03.339Z,9.00
2022-08-20T12:04:33.633Z,8.10
2022-08-20T12:07:09.600Z,8.07
2022-08-20T12:09:36.710Z,8.45
2022-08-20T12:12:09.164Z,8.70
2022-08-20T12:14:37.157Z,8.23
2022-08-20T12:17:23.989Z,7.90
2022-08-20T12:19:52.531Z,8.55
2022-08-20T12:22:24.484Z,6.97
2022-08-20T12:24:53.039Z,7.78
2022-08-20T12:27:26.863Z,8.57
2022-08-20T12:29:55.693Z,9.10
2022-08-20T12:32:24.883Z,7.95
2022-08-20T12:34:52.527Z,7.60
2022-08-20T12:37:23.139Z,6.97
2022-08-20T12:39:52.617Z,7.75
2022-08-20T12:42:20.434Z,7.68
2022-08-20T12:44:47.588Z,12.38
2022-08-20T12:47:20.538Z,13.23
2022-08-20T12:49:50.846Z,12.93
2022-08-20T12:52:19.376Z,17.08
2022-08-20T12:54:46.506Z,16.80
2022-08-20T12:57:28.343Z,16.60
2022-08-20T13:00:00.391Z,12.82
2022-08-20T13:02:27.704Z,14.77
2022-08-20T13:04:54.829Z,18.95
2022-08-20T13:07:30.273Z,21.25
2022-08-20T13:09:57.211Z,21.30
2022-08-20T13:12:24.226Z,17.42
2022-08-20T13:14:51.166Z,18.58
2022-08-20T13:17:18.871Z,18.17
2022-08-20T13:19:46.246Z,18.83
2022-08-20T13:22:15.653Z,16.77
2022-08-20T13:24:43.359Z,16.45
2022-08-20T13:27:20.185Z,15.75
2022-08-20T13:29:55.227Z,15.95
2022-08-20T13:32:25.179Z,17.67
2022-08-20T13:34:52.187Z,16.42
2022-08-20T13:37:25.049Z,15.52
2022-08-20T13:39:55.820Z,15.18
2022-08-20T13:42:23.186Z,15.43
2022-08-20T13:44:50.337Z,15.77
2022-08-20T13:47:21.821Z,14.57
2022-08-20T13:49:54.084Z,14.35
2022-08-20T13:52:20.965Z,14.25
2022-08-20T13:54:48.563Z,13.65
2022-08-20T13:57:17.960Z,13.32
2022-08-20T13:59:47.160Z,13.18
2022-08-20T14:02:14.701Z,11.48
2022-08-20T14:04:41.965Z,11.60
2022-08-20T14:07:32.440Z,12.25
2022-08-20T14:10:12.214Z,12.10
2022-08-20T14:12:39.284Z,13.18
2022-08-20T14:15:07.352Z,12.38
2022-08-20T14:17:37.041Z,12.15
2022-08-20T14:20:20.218Z,11.27
2022-08-20T14:22:47.370Z,12.00
2022-08-20T14:25:16.134Z,11.75
2022-08-20T14:27:43.639Z,11.18
2022-08-20T14:30:14.995Z,9.80
2022-08-20T14:32:42.085Z,10.88
2022-08-20T14:35:10.222Z,9.60
2022-08-20T14:37:48.121Z,10.00
2022-08-20T14:40:17.009Z,9.70
2022-08-20T14:42:44.643Z,8.85
2022-08-20T14:45:14.819Z,8.60
2022-08-20T14:47:45.936Z,8.80
2022-08-20T14:50:18.798Z,8.68
2022-08-20T14:55:15.415Z,8.20
2022-08-20T14:57:43.236Z,8.32
2022-08-20T15:00:13.207Z,7.70
2022-08-20T15:02:40.128Z,7.80
2022-08-20T15:05:08.684Z,7.10
2022-08-20T15:07:38.540Z,6.95
2022-08-20T15:10:09.873Z,7.07
2022-08-20T15:12:37.298Z,9.18
2022-08-20T15:15:14.114Z,8.85
2022-08-20T15:17:49.044Z,8.13
2022-08-20T15:20:20.200Z,7.80
2022-08-20T15:22:48.792Z,9.77
2022-08-20T15:25:18.511Z,8.00
2022-08-20T15:27:46.159Z,8.63
2022-08-20T15:30:17.969Z,8.48
2022-08-20T15:32:45.345Z,7.97
2022-08-20T15:35:16.456Z,8.68
2022-08-20T15:37:49.593Z,8.27
2022-08-20T15:40:23.489Z,7.38
2022-08-20T15:42:54.377Z,7.93
2022-08-20T15:45:22.314Z,8.15
2022-08-20T15:47:51.758Z,8.30
2022-08-20T15:50:44.283Z,7.63
2022-08-20T15:53:18.104Z,7.33
2022-08-20T15:55:52.827Z,8.85
2022-08-20T15:58:46.996Z,8.88
2022-08-20T16:01:49.034Z,8.38
2022-08-20T16:04:45.329Z,9.15
2022-08-20T16:07:23.435Z,8.70
2022-08-20T16:10:07.706Z,9.75
2022-08-20T16:12:40.126Z,9.30
2022-08-20T16:15:29.069Z,9.77
2022-08-20T16:18:07.343Z,9.15
2022-08-20T16:20:41.031Z,8.65
2022-08-20T16:23:09.512Z,8.35
2022-08-20T16:25:59.492Z,9.10
2022-08-20T16:28:29.359Z,9.00
2022-08-20T16:31:04.639Z,8.02
2022-08-20T16:34:00.563Z,9.20
2022-08-20T16:36:42.411Z,8.13
2022-08-20T16:39:17.612Z,7.53
2022-08-20T16:41:46.307Z,6.90
2022-08-20T16:44:34.409Z,6.82
2022-08-20T16:47:18.354Z,6.72
2022-08-20T16:50:05.879Z,7.57
2022-08-20T16:52:33.057Z,7.50
2022-08-20T16:55:00.312Z,6.43
2022-08-20T16:57:28.554Z,6.85
2022-08-20T17:00:26.291Z,6.28
2022-08-20T17:02:59.535Z,7.28
2022-08-20T17:05:47.751Z,7.82
2022-08-20T17:08:25.926Z,7.40
2022-08-20T17:11:23.945Z,7.28
2022-08-20T17:13:51.121Z,7.78
2022-08-20T17:16:20.591Z,6.90
2022-08-20T17:18:51.676Z,6.60
2022-08-20T17:21:27.376Z,7.47
2022-08-20T17:23:57.765Z,7.13
2022-08-20T17:26:35.483Z,6.07
2022-08-20T17:29:17.647Z,5.88
2022-08-20T17:31:48.980Z,5.82
2022-08-20T17:34:25.625Z,5.25
2022-08-20T17:36:58.614Z,5.40
2022-08-20T17:39:27.780Z,5.90
2022-08-20T17:42:21.970Z,5.07
2022-08-20T17:44:55.921Z,4.70
2022-08-20T17:47:27.017Z,5.70
2022-08-20T17:50:02.878Z,4.90
2022-08-20T17:52:45.931Z,5.45
2022-08-20T17:55:13.566Z,5.13
2022-08-20T17:57:44.646Z,4.93
2022-08-20T18:00:23.279Z,4.82
2022-08-20T18:03:01.390Z,4.47
2022-08-20T18:05:32.098Z,4.80
2022-08-20T18:08:23.640Z,4.93
2022-08-20T18:11:18.496Z,4.70
2022-08-20T18:14:17.601Z,4.63
2022-08-20T18:17:01.788Z,4.55
2022-08-20T18:19:40.685Z,3.92
2022-08-20T18:22:12.153Z,4.63
2022-08-20T18:24:52.910Z,4.32
2022-08-20T18:27:22.365Z,5.10
2022-08-20T18:29:54.703Z,4.43
2022-08-20T18:32:27.485Z,4.60
2022-08-20T18:34:55.367Z,4.43
2022-08-20T18:37:27.900Z,5.93
2022-08-20T18:40:10.525Z,5.07
2022-08-20T18:42:37.834Z,4.35
2022-08-20T18:45:06.016Z,4.35
2022-08-20T18:47:32.877Z,3.75
2022-08-20T18:50:16.468Z,4.22
2022-08-20T18:52:47.429Z,4.38
2022-08-20T18:55:42.307Z,3.85
2022-08-20T18:58:29.316Z,4.25
2022-08-20T19:00:56.563Z,4.00
2022-08-20T19:03:28.675Z,3.65
2022-08-20T19:06:26.354Z,4.87
2022-08-20T19:09:11.118Z,3.95
2022-08-20T19:11:56.116Z,3.83
2022-08-20T19:14:58.735Z,3.28
2022-08-20T19:17:54.744Z,3.58
2022-08-20T19:20:25.371Z,3.10
2022-08-20T19:22:56.749Z,4.25
2022-08-20T19:25:29.951Z,3.85
2022-08-20T19:28:03.962Z,3.63
2022-08-20T19:30:36.993Z,4.15
2022-08-20T19:33:05.079Z,3.25
2022-08-20T19:35:32.343Z,3.63
2022-08-20T19:38:01.377Z,3.58
2022-08-20T19:40:38.143Z,3.47
2022-08-20T19:43:11.394Z,4.43
2022-08-20T19:45:51.041Z,3.53
2022-08-20T19:48:33.471Z,3.70
2022-08-20T19:51:45.845Z,4.40
2022-08-20T19:54:24.396Z,4.30
2022-08-20T19:56:56.185Z,4.10
2022-08-20T19:59:23.554Z,4.35
2022-08-20T20:02:00.389Z,4.25
2022-08-20T20:04:29.965Z,4.80
2022-08-20T20:06:58.441Z,4.00
2022-08-20T20:09:28.180Z,4.82
2022-08-20T20:11:58.176Z,3.97
2022-08-20T20:14:31.811Z,4.45
2022-08-20T20:16:59.255Z,4.30
2022-08-20T20:19:27.853Z,3.58
2022-08-20T20:22:11.940Z,4.50
2022-08-20T20:24:57.399Z,4.15
2022-08-20T20:27:26.395Z,4.63
2022-08-20T20:30:07.695Z,4.68
2022-08-20T20:32:35.305Z,4.32
2022-08-20T20:35:05.779Z,4.72
2022-08-20T20:37:48.927Z,5.20
2022-08-20T20:40:30.772Z,4.88
2022-08-20T20:43:12.454Z,4.73
2022-08-20T20:45:45.248Z,5.20
2022-08-20T20:48:14.875Z,4.22
2022-08-20T20:50:42.389Z,4.13
2022-08-20T20:53:09.692Z,4.38
2022-08-20T20:55:38.347Z,4.53
2022-08-20T20:58:05.460Z,4.03
2022-08-20T21:00:33.927Z,4.43
2022-08-20T21:03:02.737Z,4.60
2022-08-20T21:05:32.031Z,4.45
2022-08-20T21:08:01.234Z,4.78
2022-08-20T21:10:32.427Z,5.00
2022-08-20T21:13:00.209Z,4.72
2022-08-20T21:15:27.372Z,5.35
2022-08-20T21:17:55.213Z,5.30
2022-08-20T21:20:22.488Z,4.78
2022-08-20T21:22:49.493Z,5.10
2022-08-20T21:25:18.748Z,4.95
2022-08-20T21:27:47.854Z,5.22
2022-08-20T21:30:16.584Z,4.82
2022-08-20T21:32:43.588Z,5.40
2022-08-20T21:35:11.123Z,5.88
2022-08-20T21:37:38.090Z,6.03
2022-08-20T21:40:07.038Z,6.25
2022-08-20T21:42:36.930Z,5.80
2022-08-20T21:45:06.864Z,5.93
2022-08-20T21:47:33.744Z,5.70
2022-08-20T21:50:00.891Z,6.97
2022-08-20T21:52:28.040Z,6.63
2022-08-20T21:54:55.701Z,6.90
2022-08-20T21:57:29.186Z,6.35
2022-08-20T21:59:57.325Z,6.55
2022-08-20T22:02:25.265Z,6.40
2022-08-20T22:04:53.910Z,6.22
2022-08-20T22:07:21.815Z,6.90
2022-08-20T22:09:48.764Z,7.15
2022-08-20T22:12:21.176Z,6.25
2022-08-20T22:14:48.456Z,7.85
2022-08-20T22:17:15.933Z,7.22
2022-08-20T22:19:45.785Z,7.57
2022-08-20T22:22:14.579Z,7.35
2022-08-20T22:24:42.464Z,7.97
2022-08-20T22:27:09.394Z,7.65
2022-08-20T22:29:36.308Z,7.40
2022-08-20T22:32:03.559Z,8.43
2022-08-20T22:34:32.500Z,7.97
2022-08-20T22:37:01.016Z,7.45
2022-08-20T22:39:27.888Z,7.50
2022-08-20T22:41:54.961Z,7.20
2022-08-20T22:44:22.313Z,7.35
2022-08-20T22:46:53.885Z,8.02
2022-08-20T22:49:26.117Z,7.82
2022-08-20T22:51:53.101Z,8.60
2022-08-20T22:54:22.291Z,8.38
2022-08-20T22:56:51.904Z,8.13
2022-08-20T22:59:20.695Z,8.55
2022-08-20T23:01:47.705Z,8.40
2022-08-20T23:04:33.532Z,8.20
2022-08-20T23:07:01.822Z,8.75
2022-08-20T23:09:30.274Z,8.35
2022-08-20T23:11:57.377Z,7.85
2022-08-20T23:14:26.887Z,7.97
2022-08-20T23:17:14.630Z,8.32
2022-08-20T23:19:42.205Z,8.90
2022-08-20T23:22:09.397Z,8.65
2022-08-20T23:24:37.049Z,8.57
2022-08-20T23:27:05.930Z,8.52
2022-08-20T23:29:33.461Z,8.40
2022-08-20T23:32:00.843Z,8.43
2022-08-20T23:34:28.335Z,8.70
2022-08-20T23:36:56.157Z,7.90
2022-08-20T23:39:24.088Z,8.65
2022-08-20T23:41:51.035Z,8.13
2022-08-20T23:44:25.781Z,8.18
2022-08-20T23:47:01.301Z,8.65
2022-08-20T23:49:28.908Z,8.40
2022-08-20T23:51:57.822Z,7.97
2022-08-20T23:54:24.694Z,8.60
2022-08-20T23:57:08.616Z,9.48
2022-08-20T23:59:48.303Z,9.15
